sensor_id;sensor_type;location;lat;lon;timestamp;P1;durP1;ratioP1;P2;durP2;ratioP2
54454;SDS011;40364;52.270;10.546;2022-12-08T00:01:13;14.52;;;8.23;;
54454;SDS011;40364;52.270;10.546;2022-12-08T00:03:40;11.50;;;6.10;;
54454;SDS011;40364;52.270;10.546;2022-12-08T00:06:11;14.43;;;6.80;;
54454;SDS011;40364;52.270;10.546;2022-12-08T00:09:02;21.45;;;8.73;;
54454;SDS011;40364;52.270;10.546;2022-12-08T00:11:49;17.80;;;7.53;;
54454;SDS011;40364;52.270;10.546;2022-12-08T00:14:17;21.02;;;8.73;;
54454;SDS011;40364;52.270;10.546;2022-12-08T00:16:44;21.42;;;8.55;;
54454;SDS011;40364;52.270;10.546;2022-12-08T00:19:10;18.90;;;7.88;;
54454;SDS011;40364;52.270;10.546;2022-12-08T00:21:37;19.88;;;8.82;;
54454;SDS011;40364;52.270;10.546;2022-12-08T00:24:04;20.73;;;9.23;;
54454;SDS011;40364;52.270;10.546;2022-12-08T00:26:31;20.23;;;8.57;;
54454;SDS011;40364;52.270;10.546;2022-12-08T00:28:59;19.00;;;9.55;;
54454;SDS011;40364;52.270;10.546;2022-12-08T00:31:25;15.00;;;8.45;;
54454;SDS011;40364;52.270;10.546;2022-12-08T00:33:52;15.93;;;8.65;;
54454;SDS011;40364;52.270;10.546;2022-12-08T00:36:19;20.02;;;8.98;;
54454;SDS011;40364;52.270;10.546;2022-12-08T00:38:46;20.65;;;9.05;;
54454;SDS011;40364;52.270;10.546;2022-12-08T00:41:13;19.13;;;8.95;;
54454;SDS011;40364;52.270;10.546;2022-12-08T00:43:41;20.20;;;9.43;;
54454;SDS011;40364;52.270;10.546;2022-12-08T00:46:10;20.25;;;9.20;;
54454;SDS011;40364;52.270;10.546;2022-12-08T00:48:37;19.55;;;10.13;;
54454;SDS011;40364;52.270;10.546;2022-12-08T00:51:03;19.75;;;9.25;;
54454;SDS011;40364;52.270;10.546;2022-12-08T00:53:30;21.63;;;10.57;;
54454;SDS011;40364;52.270;10.546;2022-12-08T00:55:57;19.58;;;10.35;;
54454;SDS011;40364;52.270;10.546;2022-12-08T00:58:24;18.88;;;10.07;;
54454;SDS011;40364;52.270;10.546;2022-12-08T01:00:50;19.08;;;10.25;;
54454;SDS011;40364;52.270;10.546;2022-12-08T01:03:18;16.45;;;9.60;;
54454;SDS011;40364;52.270;10.546;2022-12-08T01:05:45;22.50;;;11.52;;
54454;SDS011;40364;52.270;10.546;2022-12-08T01:08:12;20.90;;;8.98;;
54454;SDS011;40364;52.270;10.546;2022-12-08T01:10:39;22.83;;;11.23;;
54454;SDS011;40364;52.270;10.546;2022-12-08T01:13:05;18.63;;;10.80;;
54454;SDS011;40364;52.270;10.546;2022-12-08T01:15:32;29.95;;;11.15;;
54454;SDS011;40364;52.270;10.546;2022-12-08T01:18:00;21.63;;;11.13;;
54454;SDS011;40364;52.270;10.546;2022-12-08T01:20:28;21.20;;;10.23;;
54454;SDS011;40364;52.270;10.546;2022-12-08T01:22:55;24.25;;;11.43;;
54454;SDS011;40364;52.270;10.546;2022-12-08T01:25:22;19.27;;;9.77;;
54454;SDS011;40364;52.270;10.546;2022-12-08T01:27:50;20.25;;;10.45;;
54454;SDS011;40364;52.270;10.546;2022-12-08T01:30:17;21.13;;;10.07;;
54454;SDS011;40364;52.270;10.546;2022-12-08T01:32:44;20.63;;;10.18;;
54454;SDS011;40364;52.270;10.546;2022-12-08T01:35:11;22.98;;;9.98;;
54454;SDS011;40364;52.270;10.546;2022-12-08T01:37:40;23.20;;;10.65;;
54454;SDS011;40364;52.270;10.546;2022-12-08T01:40:07;23.50;;;9.82;;
54454;SDS011;40364;52.270;10.546;2022-12-08T01:42:34;16.83;;;8.77;;
54454;SDS011;40364;52.270;10.546;2022-12-08T01:45:03;18.98;;;8.68;;
54454;SDS011;40364;52.270;10.546;2022-12-08T01:47:33;15.82;;;8.88;;
54454;SDS011;40364;52.270;10.546;2022-12-08T01:50:04;21.73;;;9.23;;
54454;SDS011;40364;52.270;10.546;2022-12-08T01:52:35;18.02;;;8.57;;
54454;SDS011;40364;52.270;10.546;2022-12-08T01:55:06;15.60;;;7.43;;
54454;SDS011;40364;52.270;10.546;2022-12-08T01:57:38;14.27;;;6.97;;
54454;SDS011;40364;52.270;10.546;2022-12-08T02:00:09;14.90;;;8.02;;
54454;SDS011;40364;52.270;10.546;2022-12-08T02:02:38;16.05;;;7.32;;
54454;SDS011;40364;52.270;10.546;2022-12-08T02:05:15;14.07;;;6.65;;
54454;SDS011;40364;52.270;10.546;2022-12-08T02:07:43;12.38;;;6.25;;
54454;SDS011;40364;52.270;10.546;2022-12-08T02:10:11;16.60;;;5.90;;
54454;SDS011;40364;52.270;10.546;2022-12-08T02:12:41;13.60;;;7.07;;
54454;SDS011;40364;52.270;10.546;2022-12-08T02:15:09;13.70;;;7.05;;
54454;SDS011;40364;52.270;10.546;2022-12-08T02:17:40;14.50;;;6.60;;
54454;SDS011;40364;52.270;10.546;2022-12-08T02:23:21;12.82;;;5.97;;
54454;SDS011;40364;52.270;10.546;2022-12-08T02:25:59;12.73;;;6.20;;
54454;SDS011;40364;52.270;10.546;2022-12-08T02:28:51;23.25;;;7.78;;
54454;SDS011;40364;52.270;10.546;2022-12-08T02:31:35;16.08;;;7.22;;
54454;SDS011;40364;52.270;10.546;2022-12-08T02:34:17;13.73;;;6.65;;
54454;SDS011;40364;52.270;10.546;2022-12-08T02:39:27;13.77;;;7.38;;
54454;SDS011;40364;52.270;10.546;2022-12-08T02:42:04;16.52;;;8.32;;
54454;SDS011;40364;52.270;10.546;2022-12-08T02:44:38;14.68;;;7.55;;
54454;SDS011;40364;52.270;10.546;2022-12-08T02:47:09;14.48;;;7.72;;
54454;SDS011;40364;52.270;10.546;2022-12-08T02:49:40;17.40;;;7.72;;
54454;SDS011;40364;52.270;10.546;2022-12-08T02:52:35;17.20;;;6.97;;
54454;SDS011;40364;52.270;10.546;2022-12-08T02:55:10;13.60;;;7.43;;
54454;SDS011;40364;52.270;10.546;2022-12-08T03:00:17;20.92;;;7.60;;
54454;SDS011;40364;52.270;10.546;2022-12-08T03:02:49;15.55;;;7.75;;
54454;SDS011;40364;52.270;10.546;2022-12-08T03:05:33;13.50;;;7.85;;
54454;SDS011;40364;52.270;10.546;2022-12-08T03:08:13;17.33;;;8.30;;
54454;SDS011;40364;52.270;10.546;2022-12-08T03:10:48;19.77;;;8.38;;
54454;SDS011;40364;52.270;10.546;2022-12-08T03:13:22;19.15;;;8.02;;
54454;SDS011;40364;52.270;10.546;2022-12-08T03:15:53;13.50;;;6.85;;
54454;SDS011;40364;52.270;10.546;2022-12-08T03:18:22;16.30;;;7.55;;
54454;SDS011;40364;52.270;10.546;2022-12-08T03:20:54;13.13;;;7.38;;
54454;SDS011;40364;52.270;10.546;2022-12-08T03:23:22;19.80;;;7.78;;
54454;SDS011;40364;52.270;10.546;2022-12-08T03:28:36;14.27;;;7.57;;
54454;SDS011;40364;52.270;10.546;2022-12-08T03:31:05;22.55;;;8.38;;
54454;SDS011;40364;52.270;10.546;2022-12-08T03:33:36;12.15;;;6.82;;
54454;SDS011;40364;52.270;10.546;2022-12-08T03:36:06;15.63;;;6.97;;
54454;SDS011;40364;52.270;10.546;2022-12-08T03:38:39;15.25;;;6.75;;
54454;SDS011;40364;52.270;10.546;2022-12-08T03:41:08;11.93;;;7.00;;
54454;SDS011;40364;52.270;10.546;2022-12-08T03:43:44;16.85;;;6.28;;
54454;SDS011;40364;52.270;10.546;2022-12-08T03:46:11;14.70;;;7.32;;
54454;SDS011;40364;52.270;10.546;2022-12-08T03:48:38;23.10;;;7.40;;
54454;SDS011;40364;52.270;10.546;2022-12-08T03:51:05;17.98;;;6.85;;
54454;SDS011;40364;52.270;10.546;2022-12-08T03:53:32;13.45;;;6.80;;
54454;SDS011;40364;52.270;10.546;2022-12-08T03:56:00;13.20;;;7.32;;
54454;SDS011;40364;52.270;10.546;2022-12-08T03:58:29;18.40;;;7.18;;
54454;SDS011;40364;52.270;10.546;2022-12-08T04:00:56;17.10;;;7.63;;
54454;SDS011;40364;52.270;10.546;2022-12-08T04:03:22;14.23;;;6.00;;
54454;SDS011;40364;52.270;10.546;2022-12-08T04:05:49;11.85;;;6.00;;
54454;SDS011;40364;52.270;10.546;2022-12-08T04:08:17;13.95;;;6.65;;
54454;SDS011;40364;52.270;10.546;2022-12-08T04:10:43;16.88;;;7.07;;
54454;SDS011;40364;52.270;10.546;2022-12-08T04:13:12;19.17;;;7.38;;
54454;SDS011;40364;52.270;10.546;2022-12-08T04:15:38;14.45;;;5.80;;
54454;SDS011;40364;52.270;10.546;2022-12-08T04:18:09;14.73;;;6.80;;
54454;SDS011;40364;52.270;10.546;2022-12-08T04:20:38;17.30;;;7.07;;
54454;SDS011;40364;52.270;10.546;2022-12-08T04:23:06;14.23;;;6.10;;
54454;SDS011;40364;52.270;10.546;2022-12-08T04:25:33;17.23;;;6.45;;
54454;SDS011;40364;52.270;10.546;2022-12-08T04:28:00;16.30;;;6.97;;
54454;SDS011;40364;52.270;10.546;2022-12-08T04:30:29;15.15;;;6.40;;
54454;SDS011;40364;52.270;10.546;2022-12-08T04:32:56;14.63;;;6.55;;
54454;SDS011;40364;52.270;10.546;2022-12-08T04:35:23;18.70;;;6.95;;
54454;SDS011;40364;52.270;10.546;2022-12-08T04:37:50;14.65;;;7.55;;
54454;SDS011;40364;52.270;10.546;2022-12-08T04:40:17;18.30;;;6.13;;
54454;SDS011;40364;52.270;10.546;2022-12-08T04:42:44;11.73;;;6.07;;
54454;SDS011;40364;52.270;10.546;2022-12-08T04:45:12;14.13;;;6.38;;
54454;SDS011;40364;52.270;10.546;2022-12-08T04:47:40;12.95;;;6.03;;
54454;SDS011;40364;52.270;10.546;2022-12-08T04:50:07;17.42;;;6.75;;
54454;SDS011;40364;52.270;10.546;2022-12-08T04:52:35;14.18;;;6.88;;
54454;SDS011;40364;52.270;10.546;2022-12-08T04:55:03;13.35;;;6.43;;
54454;SDS011;40364;52.270;10.546;2022-12-08T04:57:30;14.43;;;5.90;;
54454;SDS011;40364;52.270;10.546;2022-12-08T04:59:57;14.50;;;6.22;;
54454;SDS011;40364;52.270;10.546;2022-12-08T05:02:24;18.23;;;7.20;;
54454;SDS011;40364;52.270;10.546;2022-12-08T05:04:52;14.60;;;6.88;;
54454;SDS011;40364;52.270;10.546;2022-12-08T05:07:19;15.55;;;6.68;;
54454;SDS011;40364;52.270;10.546;2022-12-08T05:09:46;13.40;;;6.20;;
54454;SDS011;40364;52.270;10.546;2022-12-08T05:12:13;21.17;;;7.55;;
54454;SDS011;40364;52.270;10.546;2022-12-08T05:14:40;14.18;;;6.20;;
54454;SDS011;40364;52.270;10.546;2022-12-08T05:17:07;17.35;;;7.97;;
54454;SDS011;40364;52.270;10.546;2022-12-08T05:19:34;17.10;;;6.53;;
54454;SDS011;40364;52.270;10.546;2022-12-08T05:22:02;17.27;;;7.43;;
54454;SDS011;40364;52.270;10.546;2022-12-08T05:24:29;13.82;;;6.80;;
54454;SDS011;40364;52.270;10.546;2022-12-08T05:26:57;17.23;;;8.13;;
54454;SDS011;40364;52.270;10.546;2022-12-08T05:29:31;15.30;;;8.90;;
54454;SDS011;40364;52.270;10.546;2022-12-08T05:31:59;15.45;;;6.20;;
54454;SDS011;40364;52.270;10.546;2022-12-08T05:34:26;16.55;;;7.07;;
54454;SDS011;40364;52.270;10.546;2022-12-08T05:36:53;17.08;;;7.25;;
54454;SDS011;40364;52.270;10.546;2022-12-08T05:39:22;17.48;;;7.30;;
54454;SDS011;40364;52.270;10.546;2022-12-08T05:41:49;12.88;;;7.07;;
54454;SDS011;40364;52.270;10.546;2022-12-08T05:44:16;14.63;;;7.13;;
54454;SDS011;40364;52.270;10.546;2022-12-08T05:46:42;20.75;;;6.40;;
54454;SDS011;40364;52.270;10.546;2022-12-08T05:49:09;17.38;;;7.10;;
54454;SDS011;40364;52.270;10.546;2022-12-08T05:51:36;20.20;;;8.23;;
54454;SDS011;40364;52.270;10.546;2022-12-08T05:54:03;16.33;;;8.32;;
54454;SDS011;40364;52.270;10.546;2022-12-08T05:56:32;18.60;;;7.78;;
54454;SDS011;40364;52.270;10.546;2022-12-08T05:58:58;17.75;;;8.43;;
54454;SDS011;40364;52.270;10.546;2022-12-08T06:01:26;20.38;;;8.57;;
54454;SDS011;40364;52.270;10.546;2022-12-08T06:03:54;14.73;;;7.65;;
54454;SDS011;40364;52.270;10.546;2022-12-08T06:06:24;20.40;;;8.98;;
54454;SDS011;40364;52.270;10.546;2022-12-08T06:08:51;18.27;;;8.10;;
54454;SDS011;40364;52.270;10.546;2022-12-08T06:11:18;22.80;;;8.38;;
54454;SDS011;40364;52.270;10.546;2022-12-08T06:13:47;19.33;;;8.27;;
54454;SDS011;40364;52.270;10.546;2022-12-08T06:16:14;22.33;;;8.13;;
54454;SDS011;40364;52.270;10.546;2022-12-08T06:18:41;21.80;;;8.35;;
54454;SDS011;40364;52.270;10.546;2022-12-08T06:21:08;17.40;;;8.05;;
54454;SDS011;40364;52.270;10.546;2022-12-08T06:23:36;20.65;;;8.68;;
54454;SDS011;40364;52.270;10.546;2022-12-08T06:26:04;20.02;;;7.78;;
54454;SDS011;40364;52.270;10.546;2022-12-08T06:28:33;19.63;;;8.70;;
54454;SDS011;40364;52.270;10.546;2022-12-08T06:31:07;19.38;;;8.10;;
54454;SDS011;40364;52.270;10.546;2022-12-08T06:33:35;21.05;;;9.68;;
54454;SDS011;40364;52.270;10.546;2022-12-08T06:36:02;18.70;;;9.38;;
54454;SDS011;40364;52.270;10.546;2022-12-08T06:38:29;21.85;;;8.95;;
54454;SDS011;40364;52.270;10.546;2022-12-08T06:40:56;25.27;;;11.07;;
54454;SDS011;40364;52.270;10.546;2022-12-08T06:43:24;22.08;;;10.15;;
54454;SDS011;40364;52.270;10.546;2022-12-08T06:45:51;19.50;;;9.77;;
54454;SDS011;40364;52.270;10.546;2022-12-08T06:48:19;24.55;;;10.35;;
54454;SDS011;40364;52.270;10.546;2022-12-08T06:50:46;21.58;;;10.15;;
54454;SDS011;40364;52.270;10.546;2022-12-08T06:53:13;25.10;;;10.68;;
54454;SDS011;40364;52.270;10.546;2022-12-08T06:55:42;25.95;;;10.43;;
54454;SDS011;40364;52.270;10.546;2022-12-08T06:58:09;24.92;;;11.20;;
54454;SDS011;40364;52.270;10.546;2022-12-08T07:00:37;28.63;;;11.45;;
54454;SDS011;40364;52.270;10.546;2022-12-08T07:03:05;25.35;;;11.40;;
54454;SDS011;40364;52.270;10.546;2022-12-08T07:05:33;27.45;;;11.70;;
54454;SDS011;40364;52.270;10.546;2022-12-08T07:08:00;28.58;;;11.52;;
54454;SDS011;40364;52.270;10.546;2022-12-08T07:10:27;25.55;;;11.27;;
54454;SDS011;40364;52.270;10.546;2022-12-08T07:12:54;31.73;;;13.13;;
54454;SDS011;40364;52.270;10.546;2022-12-08T07:15:21;27.23;;;13.00;;
54454;SDS011;40364;52.270;10.546;2022-12-08T07:17:47;22.90;;;11.38;;
54454;SDS011;40364;52.270;10.546;2022-12-08T07:20:14;22.42;;;11.30;;
54454;SDS011;40364;52.270;10.546;2022-12-08T07:22:47;26.73;;;12.32;;
54454;SDS011;40364;52.270;10.546;2022-12-08T07:25:15;21.27;;;11.45;;
54454;SDS011;40364;52.270;10.546;2022-12-08T07:27:41;26.40;;;12.75;;
54454;SDS011;40364;52.270;10.546;2022-12-08T07:30:08;28.48;;;10.50;;
54454;SDS011;40364;52.270;10.546;2022-12-08T07:32:36;29.23;;;14.02;;
54454;SDS011;40364;52.270;10.546;2022-12-08T07:35:03;30.83;;;13.85;;
54454;SDS011;40364;52.270;10.546;2022-12-08T07:37:31;24.13;;;10.70;;
54454;SDS011;40364;52.270;10.546;2022-12-08T07:40:00;26.25;;;10.65;;
54454;SDS011;40364;52.270;10.546;2022-12-08T07:42:27;22.83;;;12.00;;
54454;SDS011;40364;52.270;10.546;2022-12-08T07:44:53;23.58;;;11.43;;
54454;SDS011;40364;52.270;10.546;2022-12-08T07:47:20;22.42;;;11.70;;
54454;SDS011;40364;52.270;10.546;2022-12-08T07:49:47;23.30;;;10.80;;
54454;SDS011;40364;52.270;10.546;2022-12-08T07:52:13;25.42;;;10.98;;
54454;SDS011;40364;52.270;10.546;2022-12-08T07:54:40;26.75;;;11.05;;
54454;SDS011;40364;52.270;10.546;2022-12-08T07:57:08;29.98;;;11.88;;
54454;SDS011;40364;52.270;10.546;2022-12-08T07:59:35;31.02;;;12.65;;
54454;SDS011;40364;52.270;10.546;2022-12-08T08:02:01;31.98;;;13.55;;
54454;SDS011;40364;52.270;10.546;2022-12-08T08:04:28;28.00;;;11.70;;
54454;SDS011;40364;52.270;10.546;2022-12-08T08:06:55;33.00;;;12.30;;
54454;SDS011;40364;52.270;10.546;2022-12-08T08:09:22;28.15;;;12.27;;
54454;SDS011;40364;52.270;10.546;2022-12-08T08:11:48;22.55;;;10.63;;
54454;SDS011;40364;52.270;10.546;2022-12-08T08:14:17;29.00;;;12.20;;
54454;SDS011;40364;52.270;10.546;2022-12-08T08:16:44;26.95;;;11.80;;
54454;SDS011;40364;52.270;10.546;2022-12-08T08:19:11;28.85;;;11.48;;
54454;SDS011;40364;52.270;10.546;2022-12-08T08:21:38;32.50;;;12.35;;
54454;SDS011;40364;52.270;10.546;2022-12-08T08:24:05;40.63;;;15.20;;
54454;SDS011;40364;52.270;10.546;2022-12-08T08:26:32;31.75;;;12.30;;
54454;SDS011;40364;52.270;10.546;2022-12-08T08:28:58;30.80;;;13.15;;
54454;SDS011;40364;52.270;10.546;2022-12-08T08:31:27;30.83;;;11.90;;
54454;SDS011;40364;52.270;10.546;2022-12-08T08:33:54;32.38;;;10.85;;
54454;SDS011;40364;52.270;10.546;2022-12-08T08:36:21;35.33;;;13.65;;
54454;SDS011;40364;52.270;10.546;2022-12-08T08:38:48;32.72;;;13.15;;
54454;SDS011;40364;52.270;10.546;2022-12-08T08:41:15;30.50;;;13.00;;
54454;SDS011;40364;52.270;10.546;2022-12-08T08:43:41;30.60;;;12.68;;
54454;SDS011;40364;52.270;10.546;2022-12-08T08:46:08;29.48;;;12.82;;
54454;SDS011;40364;52.270;10.546;2022-12-08T08:48:37;23.77;;;10.85;;
54454;SDS011;40364;52.270;10.546;2022-12-08T08:51:07;22.50;;;10.38;;
54454;SDS011;40364;52.270;10.546;2022-12-08T08:53:35;21.73;;;11.02;;
54454;SDS011;40364;52.270;10.546;2022-12-08T08:56:02;21.15;;;10.32;;
54454;SDS011;40364;52.270;10.546;2022-12-08T08:58:33;28.45;;;11.95;;
54454;SDS011;40364;52.270;10.546;2022-12-08T09:00:59;19.50;;;9.38;;
54454;SDS011;40364;52.270;10.546;2022-12-08T09:03:26;20.63;;;9.60;;
54454;SDS011;40364;52.270;10.546;2022-12-08T09:05:55;22.05;;;9.32;;
54454;SDS011;40364;52.270;10.546;2022-12-08T09:08:22;19.52;;;10.30;;
54454;SDS011;40364;52.270;10.546;2022-12-08T09:10:48;21.65;;;10.00;;
54454;SDS011;40364;52.270;10.546;2022-12-08T09:13:15;18.05;;;9.00;;
54454;SDS011;40364;52.270;10.546;2022-12-08T09:15:42;21.42;;;9.35;;
54454;SDS011;40364;52.270;10.546;2022-12-08T09:18:08;15.23;;;7.63;;
54454;SDS011;40364;52.270;10.546;2022-12-08T09:20:36;18.40;;;9.40;;
54454;SDS011;40364;52.270;10.546;2022-12-08T09:23:04;21.55;;;9.38;;
54454;SDS011;40364;52.270;10.546;2022-12-08T09:25:30;19.38;;;9.13;;
54454;SDS011;40364;52.270;10.546;2022-12-08T09:27:57;18.60;;;7.95;;
54454;SDS011;40364;52.270;10.546;2022-12-08T09:30:24;18.92;;;8.73;;
54454;SDS011;40364;52.270;10.546;2022-12-08T09:32:50;19.67;;;9.30;;
54454;SDS011;40364;52.270;10.546;2022-12-08T09:35:17;17.05;;;9.90;;
54454;SDS011;40364;52.270;10.546;2022-12-08T09:37:44;17.80;;;8.93;;
54454;SDS011;40364;52.270;10.546;2022-12-08T09:40:14;17.75;;;8.60;;
54454;SDS011;40364;52.270;10.546;2022-12-08T09:42:43;16.55;;;9.40;;
54454;SDS011;40364;52.270;10.546;2022-12-08T09:45:16;20.15;;;9.38;;
54454;SDS011;40364;52.270;10.546;2022-12-08T09:47:44;20.00;;;9.32;;
54454;SDS011;40364;52.270;10.546;2022-12-08T09:50:14;17.30;;;8.65;;
54454;SDS011;40364;52.270;10.546;2022-12-08T09:52:46;21.45;;;7.95;;
54454;SDS011;40364;52.270;10.546;2022-12-08T09:55:27;26.10;;;9.25;;
54454;SDS011;40364;52.270;10.546;2022-12-08T09:58:02;18.00;;;8.35;;
54454;SDS011;40364;52.270;10.546;2022-12-08T10:00:35;20.15;;;10.65;;
54454;SDS011;40364;52.270;10.546;2022-12-08T10:03:02;19.88;;;8.32;;
54454;SDS011;40364;52.270;10.546;2022-12-08T10:05:29;20.10;;;9.68;;
54454;SDS011;40364;52.270;10.546;2022-12-08T10:08:01;18.35;;;10.05;;
54454;SDS011;40364;52.270;10.546;2022-12-08T10:10:37;22.17;;;10.02;;
54454;SDS011;40364;52.270;10.546;2022-12-08T10:13:09;15.82;;;8.55;;
54454;SDS011;40364;52.270;10.546;2022-12-08T10:15:43;19.97;;;10.37;;
54454;SDS011;40364;52.270;10.546;2022-12-08T10:18:16;23.85;;;10.70;;
54454;SDS011;40364;52.270;10.546;2022-12-08T10:20:45;20.02;;;8.68;;
54454;SDS011;40364;52.270;10.546;2022-12-08T10:23:15;21.95;;;8.52;;
54454;SDS011;40364;52.270;10.546;2022-12-08T10:25:50;19.13;;;9.70;;
54454;SDS011;40364;52.270;10.546;2022-12-08T10:28:20;17.95;;;8.55;;
54454;SDS011;40364;52.270;10.546;2022-12-08T10:30:47;21.85;;;9.18;;
54454;SDS011;40364;52.270;10.546;2022-12-08T10:33:14;22.48;;;9.02;;
54454;SDS011;40364;52.270;10.546;2022-12-08T10:35:42;19.17;;;10.98;;
54454;SDS011;40364;52.270;10.546;2022-12-08T10:38:19;15.20;;;7.22;;
54454;SDS011;40364;52.270;10.546;2022-12-08T10:40:50;15.60;;;8.57;;
54454;SDS011;40364;52.270;10.546;2022-12-08T10:43:20;14.60;;;8.70;;
54454;SDS011;40364;52.270;10.546;2022-12-08T10:45:49;17.90;;;9.25;;
54454;SDS011;40364;52.270;10.546;2022-12-08T10:48:17;18.67;;;9.30;;
54454;SDS011;40364;52.270;10.546;2022-12-08T10:50:46;18.48;;;10.07;;
54454;SDS011;40364;52.270;10.546;2022-12-08T10:53:18;15.95;;;8.93;;
54454;SDS011;40364;52.270;10.546;2022-12-08T10:55:48;14.73;;;8.25;;
54454;SDS011;40364;52.270;10.546;2022-12-08T10:58:25;19.10;;;9.93;;
54454;SDS011;40364;52.270;10.546;2022-12-08T11:00:55;17.77;;;9.35;;
54454;SDS011;40364;52.270;10.546;2022-12-08T11:03:25;15.80;;;8.27;;
54454;SDS011;40364;52.270;10.546;2022-12-08T11:05:55;15.30;;;8.00;;
54454;SDS011;40364;52.270;10.546;2022-12-08T11:08:24;14.48;;;7.32;;
54454;SDS011;40364;52.270;10.546;2022-12-08T11:10:53;13.38;;;6.43;;
54454;SDS011;40364;52.270;10.546;2022-12-08T11:13:20;10.98;;;6.32;;
54454;SDS011;40364;52.270;10.546;2022-12-08T11:15:50;13.70;;;6.35;;
54454;SDS011;40364;52.270;10.546;2022-12-08T11:18:22;12.30;;;6.22;;
54454;SDS011;40364;52.270;10.546;2022-12-08T11:20:59;9.63;;;5.45;;
54454;SDS011;40364;52.270;10.546;2022-12-08T11:23:33;11.50;;;5.78;;
54454;SDS011;40364;52.270;10.546;2022-12-08T11:26:03;9.60;;;6.05;;
54454;SDS011;40364;52.270;10.546;2022-12-08T11:31:09;12.63;;;7.32;;
54454;SDS011;40364;52.270;10.546;2022-12-08T11:33:46;13.63;;;7.20;;
54454;SDS011;40364;52.270;10.546;2022-12-08T11:36:16;12.45;;;6.78;;
54454;SDS011;40364;52.270;10.546;2022-12-08T11:38:46;10.38;;;6.03;;
54454;SDS011;40364;52.270;10.546;2022-12-08T11:41:17;12.10;;;6.28;;
54454;SDS011;40364;52.270;10.546;2022-12-08T11:43:47;11.10;;;7.03;;
54454;SDS011;40364;52.270;10.546;2022-12-08T11:46:20;11.23;;;6.63;;
54454;SDS011;40364;52.270;10.546;2022-12-08T11:48:50;10.32;;;6.20;;
54454;SDS011;40364;52.270;10.546;2022-12-08T11:51:20;10.07;;;5.93;;
54454;SDS011;40364;52.270;10.546;2022-12-08T11:54:00;9.00;;;5.15;;
54454;SDS011;40364;52.270;10.546;2022-12-08T11:56:37;9.23;;;5.68;;
54454;SDS011;40364;52.270;10.546;2022-12-08T11:59:09;9.93;;;4.90;;
54454;SDS011;40364;52.270;10.546;2022-12-08T12:01:42;9.85;;;5.95;;
54454;SDS011;40364;52.270;10.546;2022-12-08T12:04:11;8.45;;;5.15;;
54454;SDS011;40364;52.270;10.546;2022-12-08T12:06:51;9.23;;;5.72;;
54454;SDS011;40364;52.270;10.546;2022-12-08T12:09:43;10.60;;;5.70;;
54454;SDS011;40364;52.270;10.546;2022-12-08T12:12:25;10.32;;;5.70;;
54454;SDS011;40364;52.270;10.546;2022-12-08T12:18:09;7.80;;;4.75;;
54454;SDS011;40364;52.270;10.546;2022-12-08T12:20:45;7.55;;;4.55;;
54454;SDS011;40364;52.270;10.546;2022-12-08T12:23:17;8.35;;;4.97;;
54454;SDS011;40364;52.270;10.546;2022-12-08T12:25:49;7.70;;;4.72;;
54454;SDS011;40364;52.270;10.546;2022-12-08T12:28:21;8.60;;;4.95;;
54454;SDS011;40364;52.270;10.546;2022-12-08T12:30:51;8.77;;;5.30;;
54454;SDS011;40364;52.270;10.546;2022-12-08T12:33:23;9.90;;;6.25;;
54454;SDS011;40364;52.270;10.546;2022-12-08T12:35:51;10.07;;;5.22;;
54454;SDS011;40364;52.270;10.546;2022-12-08T12:38:23;14.48;;;5.13;;
54454;SDS011;40364;52.270;10.546;2022-12-08T12:41:09;7.55;;;4.57;;
54454;SDS011;40364;52.270;10.546;2022-12-08T12:43:40;11.38;;;5.60;;
54454;SDS011;40364;52.270;10.546;2022-12-08T12:46:54;8.70;;;5.28;;
54454;SDS011;40364;52.270;10.546;2022-12-08T12:52:37;8.13;;;4.43;;
54454;SDS011;40364;52.270;10.546;2022-12-08T12:55:24;7.40;;;4.65;;
54454;SDS011;40364;52.270;10.546;2022-12-08T12:58:32;6.93;;;4.70;;
54454;SDS011;40364;52.270;10.546;2022-12-08T13:04:18;6.20;;;4.10;;
54454;SDS011;40364;52.270;10.546;2022-12-08T13:06:53;9.32;;;4.28;;
54454;SDS011;40364;52.270;10.546;2022-12-08T13:09:21;8.27;;;4.90;;
54454;SDS011;40364;52.270;10.546;2022-12-08T13:11:52;7.18;;;4.55;;
54454;SDS011;40364;52.270;10.546;2022-12-08T13:14:25;6.88;;;4.32;;
54454;SDS011;40364;52.270;10.546;2022-12-08T13:16:54;7.25;;;4.60;;
54454;SDS011;40364;52.270;10.546;2022-12-08T13:19:25;6.63;;;4.15;;
54454;SDS011;40364;52.270;10.546;2022-12-08T13:21:56;6.78;;;4.70;;
54454;SDS011;40364;52.270;10.546;2022-12-08T13:24:27;9.25;;;4.78;;
54454;SDS011;40364;52.270;10.546;2022-12-08T13:29:43;7.82;;;4.68;;
54454;SDS011;40364;52.270;10.546;2022-12-08T13:35:22;8.00;;;4.38;;
54454;SDS011;40364;52.270;10.546;2022-12-08T13:37:49;8.65;;;5.70;;
54454;SDS011;40364;52.270;10.546;2022-12-08T13:40:17;8.50;;;4.35;;
54454;SDS011;40364;52.270;10.546;2022-12-08T13:42:49;7.07;;;4.70;;
54454;SDS011;40364;52.270;10.546;2022-12-08T13:45:28;9.98;;;4.85;;
54454;SDS011;40364;52.270;10.546;2022-12-08T13:47:59;7.93;;;4.95;;
54454;SDS011;40364;52.270;10.546;2022-12-08T13:50:32;7.57;;;4.57;;
54454;SDS011;40364;52.270;10.546;2022-12-08T13:53:08;6.00;;;4.07;;
54454;SDS011;40364;52.270;10.546;2022-12-08T13:55:40;7.22;;;4.32;;
54454;SDS011;40364;52.270;10.546;2022-12-08T13:58:14;7.10;;;4.15;;
54454;SDS011;40364;52.270;10.546;2022-12-08T14:00:47;6.13;;;3.95;;
54454;SDS011;40364;52.270;10.546;2022-12-08T14:03:20;7.38;;;4.22;;
54454;SDS011;40364;52.270;10.546;2022-12-08T14:05:48;8.52;;;4.82;;
54454;SDS011;40364;52.270;10.546;2022-12-08T14:08:17;7.28;;;4.45;;
54454;SDS011;40364;52.270;10.546;2022-12-08T14:10:51;7.68;;;4.32;;
54454;SDS011;40364;52.270;10.546;2022-12-08T14:13:23;10.30;;;6.30;;
54454;SDS011;40364;52.270;10.546;2022-12-08T14:15:51;9.20;;;5.50;;
54454;SDS011;40364;52.270;10.546;2022-12-08T14:18:21;27.02;;;12.13;;
54454;SDS011;40364;52.270;10.546;2022-12-08T14:21:00;29.67;;;16.88;;
54454;SDS011;40364;52.270;10.546;2022-12-08T14:23:28;12.18;;;5.55;;
54454;SDS011;40364;52.270;10.546;2022-12-08T14:25:55;11.40;;;6.82;;
54454;SDS011;40364;52.270;10.546;2022-12-08T14:28:22;8.05;;;4.07;;
54454;SDS011;40364;52.270;10.546;2022-12-08T14:30:50;11.68;;;6.28;;
54454;SDS011;40364;52.270;10.546;2022-12-08T14:33:16;10.27;;;6.40;;
54454;SDS011;40364;52.270;10.546;2022-12-08T14:35:47;10.88;;;5.35;;
54454;SDS011;40364;52.270;10.546;2022-12-08T14:38:18;10.93;;;5.53;;
54454;SDS011;40364;52.270;10.546;2022-12-08T14:40:46;12.80;;;6.13;;
54454;SDS011;40364;52.270;10.546;2022-12-08T14:43:15;10.30;;;5.43;;
54454;SDS011;40364;52.270;10.546;2022-12-08T14:45:48;20.90;;;11.20;;
54454;SDS011;40364;52.270;10.546;2022-12-08T14:48:18;14.10;;;6.88;;
54454;SDS011;40364;52.270;10.546;2022-12-08T14:50:53;38.63;;;17.17;;
54454;SDS011;40364;52.270;10.546;2022-12-08T14:53:27;13.98;;;7.55;;
54454;SDS011;40364;52.270;10.546;2022-12-08T14:55:56;10.65;;;5.88;;
54454;SDS011;40364;52.270;10.546;2022-12-08T14:58:25;11.98;;;6.97;;
54454;SDS011;40364;52.270;10.546;2022-12-08T15:00:54;10.25;;;6.28;;
54454;SDS011;40364;52.270;10.546;2022-12-08T15:03:24;8.48;;;4.85;;
54454;SDS011;40364;52.270;10.546;2022-12-08T15:05:54;10.38;;;5.80;;